sensor_id;sensor_type;location;lat;lon;timestamp;temperature;humidity
28767;DHT22;15921;52.034;20.650;2023-04-06T00:01:40;-1.10;99.90
28767;DHT22;15921;52.034;20.650;2023-04-06T00:04:06;-1.00;99.90
28767;DHT22;15921;52.034;20.650;2023-04-06T00:06:32;-0.90;99.90
28767;DHT22;15921;52.034;20.650;2023-04-06T00:08:59;-0.70;99.90
28767;DHT22;15921;52.034;20.650;2023-04-06T00:11:25;-0.60;99.90
28767;DHT22;15921;52.034;20.650;2023-04-06T00:13:51;-0.50;99.90
28767;DHT22;15921;52.034;20.650;2023-04-06T00:16:17;-0.40;99.90
28767;DHT22;15921;52.034;20.650;2023-04-06T00:18:43;-0.40;99.90
28767;DHT22;15921;52.034;20.650;2023-04-06T00:21:11;-0.30;99.90
28767;DHT22;15921;52.034;20.650;2023-04-06T00:23:38;-0.30;99.90
28767;DHT22;15921;52.034;20.650;2023-04-06T00:26:04;-0.20;99.90
28767;DHT22;15921;52.034;20.650;2023-04-06T00:28:29;-0.10;99.90
28767;DHT22;15921;52.034;20.650;2023-04-06T00:30:55;-0.10;99.90
28767;DHT22;15921;52.034;20.650;2023-04-06T00:33:22;0.00;99.90
28767;DHT22;15921;52.034;20.650;2023-04-06T00:35:48;0.10;99.90
28767;DHT22;15921;52.034;20.650;2023-04-06T00:38:14;0.20;99.90
28767;DHT22;15921;52.034;20.650;2023-04-06T00:40:41;0.20;99.90
28767;DHT22;15921;52.034;20.650;2023-04-06T00:43:07;0.30;99.90
28767;DHT22;15921;52.034;20.650;2023-04-06T00:45:34;0.30;99.90
28767;DHT22;15921;52.034;20.650;2023-04-06T00:48:00;0.40;99.90
28767;DHT22;15921;52.034;20.650;2023-04-06T00:50:27;0.40;99.90
28767;DHT22;15921;52.034;20.650;2023-04-06T00:52:54;0.50;99.90
28767;DHT22;15921;52.034;20.650;2023-04-06T00:55:20;0.50;99.90
28767;DHT22;15921;52.034;20.650;2023-04-06T00:57:46;0.60;99.90
28767;DHT22;15921;52.034;20.650;2023-04-06T01:00:13;0.60;99.90
28767;DHT22;15921;52.034;20.650;2023-04-06T01:02:39;0.70;99.90
28767;DHT22;15921;52.034;20.650;2023-04-06T01:05:05;0.80;99.90
28767;DHT22;15921;52.034;20.650;2023-04-06T01:07:31;0.80;99.90
28767;DHT22;15921;52.034;20.650;2023-04-06T01:09:57;0.90;99.90
28767;DHT22;15921;52.034;20.650;2023-04-06T01:12:24;0.90;99.90
28767;DHT22;15921;52.034;20.650;2023-04-06T01:14:49;0.90;99.90
28767;DHT22;15921;52.034;20.650;2023-04-06T01:17:15;1.00;99.90
28767;DHT22;15921;52.034;20.650;2023-04-06T01:19:41;1.00;99.90
28767;DHT22;15921;52.034;20.650;2023-04-06T01:22:07;1.00;99.90
28767;DHT22;15921;52.034;20.650;2023-04-06T01:24:33;1.00;99.90
28767;DHT22;15921;52.034;20.650;2023-04-06T01:26:59;1.00;99.80
28767;DHT22;15921;52.034;20.650;2023-04-06T01:29:26;1.10;99.70
28767;DHT22;15921;52.034;20.650;2023-04-06T01:31:51;1.10;99.40
28767;DHT22;15921;52.034;20.650;2023-04-06T01:34:17;1.10;99.30
28767;DHT22;15921;52.034;20.650;2023-04-06T01:36:43;1.20;99.60
28767;DHT22;15921;52.034;20.650;2023-04-06T01:39:09;1.20;99.30
28767;DHT22;15921;52.034;20.650;2023-04-06T01:41:35;1.20;98.80
28767;DHT22;15921;52.034;20.650;2023-04-06T01:44:02;1.20;98.50
28767;DHT22;15921;52.034;20.650;2023-04-06T01:46:27;1.20;98.60
28767;DHT22;15921;52.034;20.650;2023-04-06T01:48:53;1.30;98.30
28767;DHT22;15921;52.034;20.650;2023-04-06T01:51:19;1.30;98.30
28767;DHT22;15921;52.034;20.650;2023-04-06T01:53:45;1.30;98.70
28767;DHT22;15921;52.034;20.650;2023-04-06T01:56:10;1.40;98.80
28767;DHT22;15921;52.034;20.650;2023-04-06T01:58:36;1.30;99.00
28767;DHT22;15921;52.034;20.650;2023-04-06T02:01:02;1.40;99.10
28767;DHT22;15921;52.034;20.650;2023-04-06T02:03:27;1.30;98.50
28767;DHT22;15921;52.034;20.650;2023-04-06T02:05:53;1.30;98.80
28767;DHT22;15921;52.034;20.650;2023-04-06T02:08:19;1.40;99.00
28767;DHT22;15921;52.034;20.650;2023-04-06T02:10:45;1.40;99.30
28767;DHT22;15921;52.034;20.650;2023-04-06T02:13:10;1.40;99.90
28767;DHT22;15921;52.034;20.650;2023-04-06T02:15:36;1.40;99.90
28767;DHT22;15921;52.034;20.650;2023-04-06T02:18:02;1.40;99.90
28767;DHT22;15921;52.034;20.650;2023-04-06T02:20:27;1.40;99.90
28767;DHT22;15921;52.034;20.650;2023-04-06T02:22:53;1.40;99.90
28767;DHT22;15921;52.034;20.650;2023-04-06T02:25:19;1.40;99.90
28767;DHT22;15921;52.034;20.650;2023-04-06T02:27:44;1.40;99.90
28767;DHT22;15921;52.034;20.650;2023-04-06T02:30:10;1.40;99.90
28767;DHT22;15921;52.034;20.650;2023-04-06T02:32:36;1.40;99.60
28767;DHT22;15921;52.034;20.650;2023-04-06T02:35:02;1.40;99.90
28767;DHT22;15921;52.034;20.650;2023-04-06T02:37:28;1.40;99.90
28767;DHT22;15921;52.034;20.650;2023-04-06T02:39:54;1.50;99.90
28767;DHT22;15921;52.034;20.650;2023-04-06T02:42:20;1.50;99.90
28767;DHT22;15921;52.034;20.650;2023-04-06T02:44:45;1.50;99.90
28767;DHT22;15921;52.034;20.650;2023-04-06T02:47:11;1.50;99.90
28767;DHT22;15921;52.034;20.650;2023-04-06T02:49:37;1.50;99.90
28767;DHT22;15921;52.034;20.650;2023-04-06T02:52:03;1.50;99.90
28767;DHT22;15921;52.034;20.650;2023-04-06T02:54:29;1.50;99.90
28767;DHT22;15921;52.034;20.650;2023-04-06T02:56:54;1.50;99.20
28767;DHT22;15921;52.034;20.650;2023-04-06T02:59:20;1.50;98.80
28767;DHT22;15921;52.034;20.650;2023-04-06T03:01:46;1.50;98.50
28767;DHT22;15921;52.034;20.650;2023-04-06T03:04:11;1.50;99.30
28767;DHT22;15921;52.034;20.650;2023-04-06T03:06:37;1.50;99.90
28767;DHT22;15921;52.034;20.650;2023-04-06T03:09:03;1.50;99.90
28767;DHT22;15921;52.034;20.650;2023-04-06T03:11:29;1.50;99.60
28767;DHT22;15921;52.034;20.650;2023-04-06T03:13:55;1.50;99.70
28767;DHT22;15921;52.034;20.650;2023-04-06T03:16:20;1.50;99.90
28767;DHT22;15921;52.034;20.650;2023-04-06T03:18:46;1.40;99.90
28767;DHT22;15921;52.034;20.650;2023-04-06T03:21:13;1.50;99.90
28767;DHT22;15921;52.034;20.650;2023-04-06T03:23:41;1.40;99.90
28767;DHT22;15921;52.034;20.650;2023-04-06T03:26:07;1.50;99.90
28767;DHT22;15921;52.034;20.650;2023-04-06T03:28:32;1.40;99.90
28767;DHT22;15921;52.034;20.650;2023-04-06T03:30:58;1.40;99.90
28767;DHT22;15921;52.034;20.650;2023-04-06T03:33:24;1.50;99.90
28767;DHT22;15921;52.034;20.650;2023-04-06T03:35:52;1.40;99.90
28767;DHT22;15921;52.034;20.650;2023-04-06T03:38:18;1.40;99.90
28767;DHT22;15921;52.034;20.650;2023-04-06T03:40:44;1.40;99.90
28767;DHT22;15921;52.034;20.650;2023-04-06T03:43:10;1.40;99.90
28767;DHT22;15921;52.034;20.650;2023-04-06T03:45:36;1.40;99.90
28767;DHT22;15921;52.034;20.650;2023-04-06T03:48:03;1.50;99.70
28767;DHT22;15921;52.034;20.650;2023-04-06T03:50:28;1.40;99.40
28767;DHT22;15921;52.034;20.650;2023-04-06T03:52:54;1.50;99.30
28767;DHT22;15921;52.034;20.650;2023-04-06T03:55:20;1.50;99.50
28767;DHT22;15921;52.034;20.650;2023-04-06T03:57:45;1.50;99.80
28767;DHT22;15921;52.034;20.650;2023-04-06T04:00:11;1.50;99.50
28767;DHT22;15921;52.034;20.650;2023-04-06T04:02:37;1.50;99.40
28767;DHT22;15921;52.034;20.650;2023-04-06T04:05:03;1.50;99.50
28767;DHT22;15921;52.034;20.650;2023-04-06T04:07:30;1.50;99.70
28767;DHT22;15921;52.034;20.650;2023-04-06T04:09:56;1.50;99.80
28767;DHT22;15921;52.034;20.650;2023-04-06T04:12:21;1.50;99.90
28767;DHT22;15921;52.034;20.650;2023-04-06T04:14:47;1.50;99.80
28767;DHT22;15921;52.034;20.650;2023-04-06T04:17:13;1.50;99.80
28767;DHT22;15921;52.034;20.650;2023-04-06T04:19:38;1.50;99.90
28767;DHT22;15921;52.034;20.650;2023-04-06T04:22:04;1.60;99.80
28767;DHT22;15921;52.034;20.650;2023-04-06T04:24:31;1.50;99.80
28767;DHT22;15921;52.034;20.650;2023-04-06T04:26:57;1.50;99.90
28767;DHT22;15921;52.034;20.650;2023-04-06T04:29:22;1.50;99.90
28767;DHT22;15921;52.034;20.650;2023-04-06T04:31:49;1.50;99.90
28767;DHT22;15921;52.034;20.650;2023-04-06T04:34:15;1.60;99.90
28767;DHT22;15921;52.034;20.650;2023-04-06T04:36:41;1.60;99.90
28767;DHT22;15921;52.034;20.650;2023-04-06T04:39:07;1.60;99.90
28767;DHT22;15921;52.034;20.650;2023-04-06T04:41:33;1.60;99.90
28767;DHT22;15921;52.034;20.650;2023-04-06T04:43:59;1.60;99.90
28767;DHT22;15921;52.034;20.650;2023-04-06T04:46:25;1.50;99.90
28767;DHT22;15921;52.034;20.650;2023-04-06T04:48:50;1.50;99.90
28767;DHT22;15921;52.034;20.650;2023-04-06T04:51:16;1.50;99.90
28767;DHT22;15921;52.034;20.650;2023-04-06T04:53:42;1.50;99.90
28767;DHT22;15921;52.034;20.650;2023-04-06T04:56:07;1.50;99.90
28767;DHT22;15921;52.034;20.650;2023-04-06T04:58:33;1.40;99.90
28767;DHT22;15921;52.034;20.650;2023-04-06T05:00:59;1.50;99.90
28767;DHT22;15921;52.034;20.650;2023-04-06T05:03:26;1.60;99.90
28767;DHT22;15921;52.034;20.650;2023-04-06T05:05:52;1.60;99.90
28767;DHT22;15921;52.034;20.650;2023-04-06T05:08:18;1.70;99.90
28767;DHT22;15921;52.034;20.650;2023-04-06T05:10:43;1.80;99.90
28767;DHT22;15921;52.034;20.650;2023-04-06T05:13:13;1.90;99.90
28767;DHT22;15921;52.034;20.650;2023-04-06T05:15:42;1.90;99.90
28767;DHT22;15921;52.034;20.650;2023-04-06T05:18:08;2.00;99.90
28767;DHT22;15921;52.034;20.650;2023-04-06T05:20:34;2.00;99.60
28767;DHT22;15921;52.034;20.650;2023-04-06T05:23:01;2.10;99.20
28767;DHT22;15921;52.034;20.650;2023-04-06T05:25:27;2.10;98.90
28767;DHT22;15921;52.034;20.650;2023-04-06T05:27:52;2.10;98.80
28767;DHT22;15921;52.034;20.650;2023-04-06T05:30:19;2.10;98.70
28767;DHT22;15921;52.034;20.650;2023-04-06T05:32:45;2.20;98.70
28767;DHT22;15921;52.034;20.650;2023-04-06T05:35:11;2.20;98.80
28767;DHT22;15921;52.034;20.650;2023-04-06T05:37:38;2.30;98.60
28767;DHT22;15921;52.034;20.650;2023-04-06T05:40:04;2.40;98.10
28767;DHT22;15921;52.034;20.650;2023-04-06T05:42:40;2.50;97.70
28767;DHT22;15921;52.034;20.650;2023-04-06T05:45:08;2.60;97.30
28767;DHT22;15921;52.034;20.650;2023-04-06T05:47:35;2.70;96.90
28767;DHT22;15921;52.034;20.650;2023-04-06T05:50:00;2.80;96.70
28767;DHT22;15921;52.034;20.650;2023-04-06T05:52:26;2.90;96.20
28767;DHT22;15921;52.034;20.650;2023-04-06T05:54:52;2.90;95.60
28767;DHT22;15921;52.034;20.650;2023-04-06T05:57:18;3.00;95.10
28767;DHT22;15921;52.034;20.650;2023-04-06T05:59:44;3.00;95.00
28767;DHT22;15921;52.034;20.650;2023-04-06T06:02:10;3.10;94.60
28767;DHT22;15921;52.034;20.650;2023-04-06T06:04:36;3.20;93.60
28767;DHT22;15921;52.034;20.650;2023-04-06T06:07:01;3.20;93.30
28767;DHT22;15921;52.034;20.650;2023-04-06T06:09:27;3.30;93.40
28767;DHT22;15921;52.034;20.650;2023-04-06T06:11:53;3.50;92.70
28767;DHT22;15921;52.034;20.650;2023-04-06T06:14:18;3.60;92.10
28767;DHT22;15921;52.034;20.650;2023-04-06T06:16:44;3.60;91.60
28767;DHT22;15921;52.034;20.650;2023-04-06T06:19:10;3.70;91.60
28767;DHT22;15921;52.034;20.650;2023-04-06T06:21:35;3.80;91.10
28767;DHT22;15921;52.034;20.650;2023-04-06T06:24:01;3.70;91.10
28767;DHT22;15921;52.034;20.650;2023-04-06T06:26:27;3.70;91.20
28767;DHT22;15921;52.034;20.650;2023-04-06T06:28:53;3.80;91.00
28767;DHT22;15921;52.034;20.650;2023-04-06T06:31:18;3.80;90.90
28767;DHT22;15921;52.034;20.650;2023-04-06T06:33:48;4.00;90.80
28767;DHT22;15921;52.034;20.650;2023-04-06T06:36:16;4.10;90.60
28767;DHT22;15921;52.034;20.650;2023-04-06T06:38:42;4.20;90.50
28767;DHT22;15921;52.034;20.650;2023-04-06T06:41:08;4.40;90.70
28767;DHT22;15921;52.034;20.650;2023-04-06T06:43:34;4.50;90.50
28767;DHT22;15921;52.034;20.650;2023-04-06T06:45:59;4.50;89.40
28767;DHT22;15921;52.034;20.650;2023-04-06T06:48:25;4.60;89.10
28767;DHT22;15921;52.034;20.650;2023-04-06T06:50:51;4.60;89.60
28767;DHT22;15921;52.034;20.650;2023-04-06T06:53:17;4.70;88.40
28767;DHT22;15921;52.034;20.650;2023-04-06T06:55:42;4.80;88.10
28767;DHT22;15921;52.034;20.650;2023-04-06T06:58:09;4.90;88.30
28767;DHT22;15921;52.034;20.650;2023-04-06T07:00:35;4.90;87.00
28767;DHT22;15921;52.034;20.650;2023-04-06T07:03:01;4.80;87.50
28767;DHT22;15921;52.034;20.650;2023-04-06T07:05:27;4.90;87.40
28767;DHT22;15921;52.034;20.650;2023-04-06T07:07:53;5.10;87.40
28767;DHT22;15921;52.034;20.650;2023-04-06T07:10:18;5.10;86.20
28767;DHT22;15921;52.034;20.650;2023-04-06T07:12:44;4.90;85.20
28767;DHT22;15921;52.034;20.650;2023-04-06T07:15:11;4.80;85.40
28767;DHT22;15921;52.034;20.650;2023-04-06T07:17:37;4.80;86.20
28767;DHT22;15921;52.034;20.650;2023-04-06T07:20:03;4.80;86.00
28767;DHT22;15921;52.034;20.650;2023-04-06T07:22:29;4.80;85.10
28767;DHT22;15921;52.034;20.650;2023-04-06T07:24:55;4.80;84.80
28767;DHT22;15921;52.034;20.650;2023-04-06T07:27:20;4.90;84.80
28767;DHT22;15921;52.034;20.650;2023-04-06T07:29:46;5.10;84.10
28767;DHT22;15921;52.034;20.650;2023-04-06T07:32:12;5.20;83.00
28767;DHT22;15921;52.034;20.650;2023-04-06T07:34:38;5.40;83.60
28767;DHT22;15921;52.034;20.650;2023-04-06T07:37:03;5.70;82.00
28767;DHT22;15921;52.034;20.650;2023-04-06T07:39:29;5.80;81.30
28767;DHT22;15921;52.034;20.650;2023-04-06T07:41:55;6.00;80.30
28767;DHT22;15921;52.034;20.650;2023-04-06T07:44:21;6.00;78.40
28767;DHT22;15921;52.034;20.650;2023-04-06T07:46:47;6.00;79.60
28767;DHT22;15921;52.034;20.650;2023-04-06T07:49:12;6.00;79.10
28767;DHT22;15921;52.034;20.650;2023-04-06T07:51:39;6.00;79.30
28767;DHT22;15921;52.034;20.650;2023-04-06T07:54:05;6.10;79.30
28767;DHT22;15921;52.034;20.650;2023-04-06T07:56:31;6.10;78.60
28767;DHT22;15921;52.034;20.650;2023-04-06T07:58:57;6.10;79.10
28767;DHT22;15921;52.034;20.650;2023-04-06T08:01:24;6.10;78.70
28767;DHT22;15921;52.034;20.650;2023-04-06T08:03:50;6.10;78.60
28767;DHT22;15921;52.034;20.650;2023-04-06T08:06:16;6.00;79.00
28767;DHT22;15921;52.034;20.650;2023-04-06T08:08:42;6.30;79.40
28767;DHT22;15921;52.034;20.650;2023-04-06T08:11:08;6.60;78.10
28767;DHT22;15921;52.034;20.650;2023-04-06T08:13:34;6.50;77.10
28767;DHT22;15921;52.034;20.650;2023-04-06T08:16:01;6.70;77.50
28767;DHT22;15921;52.034;20.650;2023-04-06T08:18:26;6.90;76.80
28767;DHT22;15921;52.034;20.650;2023-04-06T08:20:52;7.10;76.50
28767;DHT22;15921;52.034;20.650;2023-04-06T08:23:19;7.20;75.20
28767;DHT22;15921;52.034;20.650;2023-04-06T08:25:45;7.20;75.10
28767;DHT22;15921;52.034;20.650;2023-04-06T08:28:11;7.50;74.80
28767;DHT22;15921;52.034;20.650;2023-04-06T08:30:40;7.70;74.10
28767;DHT22;15921;52.034;20.650;2023-04-06T08:33:05;7.60;72.80
28767;DHT22;15921;52.034;20.650;2023-04-06T08:35:32;7.60;73.50
28767;DHT22;15921;52.034;20.650;2023-04-06T08:37:57;7.60;72.50
28767;DHT22;15921;52.034;20.650;2023-04-06T08:40:23;7.20;72.70
28767;DHT22;15921;52.034;20.650;2023-04-06T08:42:52;7.00;74.40
28767;DHT22;15921;52.034;20.650;2023-04-06T08:45:19;6.80;74.70
28767;DHT22;15921;52.034;20.650;2023-04-06T08:47:50;6.50;76.10
28767;DHT22;15921;52.034;20.650;2023-04-06T08:50:17;6.60;77.40
28767;DHT22;15921;52.034;20.650;2023-04-06T08:52:47;6.70;76.90
28767;DHT22;15921;52.034;20.650;2023-04-06T08:55:14;6.70;77.20
28767;DHT22;15921;52.034;20.650;2023-04-06T08:57:40;6.70;77.10
28767;DHT22;15921;52.034;20.650;2023-04-06T09:00:07;6.50;78.00
28767;DHT22;15921;52.034;20.650;2023-04-06T09:02:42;6.30;79.50
28767;DHT22;15921;52.034;20.650;2023-04-06T09:05:08;6.20;80.40
28767;DHT22;15921;52.034;20.650;2023-04-06T09:07:36;6.20;81.10
28767;DHT22;15921;52.034;20.650;2023-04-06T09:10:03;6.20;82.40
28767;DHT22;15921;52.034;20.650;2023-04-06T09:12:30;6.30;82.60
28767;DHT22;15921;52.034;20.650;2023-04-06T09:14:57;6.20;82.40
28767;DHT22;15921;52.034;20.650;2023-04-06T09:17:28;6.00;83.60
28767;DHT22;15921;52.034;20.650;2023-04-06T09:19:55;5.80;85.70
28767;DHT22;15921;52.034;20.650;2023-04-06T09:22:21;5.80;86.40
28767;DHT22;15921;52.034;20.650;2023-04-06T09:24:51;5.90;86.60
28767;DHT22;15921;52.034;20.650;2023-04-06T09:27:18;6.00;85.60
28767;DHT22;15921;52.034;20.650;2023-04-06T09:30:07;6.00;86.00
28767;DHT22;15921;52.034;20.650;2023-04-06T09:32:43;6.10;85.80
28767;DHT22;15921;52.034;20.650;2023-04-06T09:35:10;6.20;85.40
28767;DHT22;15921;52.034;20.650;2023-04-06T09:37:36;5.90;85.60
28767;DHT22;15921;52.034;20.650;2023-04-06T09:40:05;5.60;87.00
28767;DHT22;15921;52.034;20.650;2023-04-06T09:42:33;5.30;88.60
28767;DHT22;15921;52.034;20.650;2023-04-06T09:44:59;5.30;89.70
28767;DHT22;15921;52.034;20.650;2023-04-06T09:47:25;5.20;90.30
28767;DHT22;15921;52.034;20.650;2023-04-06T09:49:56;5.40;90.60
28767;DHT22;15921;52.034;20.650;2023-04-06T09:53:07;5.60;90.20
28767;DHT22;15921;52.034;20.650;2023-04-06T09:55:23;5.90;89.30
28767;DHT22;15921;52.034;20.650;2023-04-06T09:57:55;5.80;89.10
28767;DHT22;15921;52.034;20.650;2023-04-06T10:00:23;5.80;89.90
28767;DHT22;15921;52.034;20.650;2023-04-06T10:05:59;5.90;90.20
28767;DHT22;15921;52.034;20.650;2023-04-06T10:08:27;5.80;90.30
28767;DHT22;15921;52.034;20.650;2023-04-06T10:10:54;5.60;90.80
28767;DHT22;15921;52.034;20.650;2023-04-06T10:13:20;5.40;91.30
28767;DHT22;15921;52.034;20.650;2023-04-06T10:15:48;5.20;92.10
28767;DHT22;15921;52.034;20.650;2023-04-06T10:18:14;4.90;93.90
28767;DHT22;15921;52.034;20.650;2023-04-06T10:20:55;4.70;95.30
28767;DHT22;15921;52.034;20.650;2023-04-06T10:25:57;4.70;98.90
28767;DHT22;15921;52.034;20.650;2023-04-06T10:28:23;4.60;99.90
28767;DHT22;15921;52.034;20.650;2023-04-06T10:31:00;4.80;99.90
28767;DHT22;15921;52.034;20.650;2023-04-06T10:33:26;4.80;99.90
28767;DHT22;15921;52.034;20.650;2023-04-06T10:35:52;4.90;99.90
28767;DHT22;15921;52.034;20.650;2023-04-06T10:38:19;4.80;99.90
28767;DHT22;15921;52.034;20.650;2023-04-06T10:40:47;4.70;99.90
28767;DHT22;15921;52.034;20.650;2023-04-06T10:43:21;4.60;99.90
28767;DHT22;15921;52.034;20.650;2023-04-06T10:45:59;4.50;99.90
28767;DHT22;15921;52.034;20.650;2023-04-06T10:48:25;4.30;99.90
28767;DHT22;15921;52.034;20.650;2023-04-06T10:51:01;4.10;99.90
28767;DHT22;15921;52.034;20.650;2023-04-06T10:53:33;4.00;99.90
28767;DHT22;15921;52.034;20.650;2023-04-06T10:55:59;4.00;99.90
28767;DHT22;15921;52.034;20.650;2023-04-06T10:58:27;4.00;99.90
28767;DHT22;15921;52.034;20.650;2023-04-06T11:00:54;4.10;99.90
28767;DHT22;15921;52.034;20.650;2023-04-06T11:03:21;4.10;99.90
28767;DHT22;15921;52.034;20.650;2023-04-06T11:05:50;4.10;99.90
28767;DHT22;15921;52.034;20.650;2023-04-06T11:08:27;4.10;99.90
28767;DHT22;15921;52.034;20.650;2023-04-06T11:11:10;4.00;99.90
28767;DHT22;15921;52.034;20.650;2023-04-06T11:13:49;4.00;99.90
28767;DHT22;15921;52.034;20.650;2023-04-06T11:18:51;4.20;99.90
28767;DHT22;15921;52.034;20.650;2023-04-06T11:21:19;4.20;99.90
28767;DHT22;15921;52.034;20.650;2023-04-06T11:23:45;4.10;99.90
28767;DHT22;15921;52.034;20.650;2023-04-06T11:26:12;4.00;99.90
28767;DHT22;15921;52.034;20.650;2023-04-06T11:28:42;3.80;99.90
28767;DHT22;15921;52.034;20.650;2023-04-06T11:31:12;3.60;99.90
28767;DHT22;15921;52.034;20.650;2023-04-06T11:33:38;3.60;99.90
28767;DHT22;15921;52.034;20.650;2023-04-06T11:36:05;3.50;99.90
28767;DHT22;15921;52.034;20.650;2023-04-06T11:38:31;3.60;99.90
28767;DHT22;15921;52.034;20.650;2023-04-06T11:40:57;3.60;99.90
28767;DHT22;15921;52.034;20.650;2023-04-06T11:43:28;3.70;99.90
28767;DHT22;15921;52.034;20.650;2023-04-06T11:46:00;3.80;99.90
28767;DHT22;15921;52.034;20.650;2023-04-06T11:48:27;3.70;99.90
28767;DHT22;15921;52.034;20.650;2023-04-06T11:50:59;3.70;99.90
28767;DHT22;15921;52.034;20.650;2023-04-06T11:53:28;3.70;99.90
28767;DHT22;15921;52.034;20.650;2023-04-06T11:55:54;3.60;99.90
28767;DHT22;15921;52.034;20.650;2023-04-06T11:58:20;3.70;99.90
28767;DHT22;15921;52.034;20.650;2023-04-06T12:00:45;3.80;99.90
28767;DHT22;15921;52.034;20.650;2023-04-06T12:03:12;3.70;99.90
28767;DHT22;15921;52.034;20.650;2023-04-06T12:05:38;3.70;99.90
28767;DHT22;15921;52.034;20.650;2023-04-06T12:08:04;3.80;99.90
28767;DHT22;15921;52.034;20.650;2023-04-06T12:10:30;3.80;99.90
28767;DHT22;15921;52.034;20.650;2023-04-06T12:12:56;3.60;99.90
28767;DHT22;15921;52.034;20.650;2023-04-06T12:15:21;3.50;99.90
28767;DHT22;15921;52.034;20.650;2023-04-06T12:17:47;3.40;99.90
28767;DHT22;15921;52.034;20.650;2023-04-06T12:20:15;3.50;99.90
28767;DHT22;15921;52.034;20.650;2023-04-06T12:22:40;3.50;99.90
28767;DHT22;15921;52.034;20.650;2023-04-06T12:25:06;3.60;99.90
28767;DHT22;15921;52.034;20.650;2023-04-06T12:27:32;3.60;99.90
28767;DHT22;15921;52.034;20.650;2023-04-06T12:29:58;3.70;99.90
28767;DHT22;15921;52.034;20.650;2023-04-06T12:32:24;3.80;99.90
28767;DHT22;15921;52.034;20.650;2023-04-06T12:34:52;3.90;99.90
28767;DHT22;15921;52.034;20.650;2023-04-06T12:37:17;3.90;99.90
28767;DHT22;15921;52.034;20.650;2023-04-06T12:39:43;3.80;99.90
28767;DHT22;15921;52.034;20.650;2023-04-06T12:42:11;3.80;99.90
28767;DHT22;15921;52.034;20.650;2023-04-06T12:44:38;3.90;99.90
28767;DHT22;15921;52.034;20.650;2023-04-06T12:47:03;3.90;99.90
28767;DHT22;15921;52.034;20.650;2023-04-06T12:49:30;3.90;99.90
28767;DHT22;15921;52.034;20.650;2023-04-06T12:51:57;4.00;99.90
28767;DHT22;15921;52.034;20.650;2023-04-06T12:54:22;4.00;99.90
28767;DHT22;15921;52.034;20.650;2023-04-06T12:56:48;4.00;99.90
28767;DHT22;15921;52.034;20.650;2023-04-06T12:59:14;3.90;99.90
28767;DHT22;15921;52.034;20.650;2023-04-06T13:01:40;3.90;99.90
28767;DHT22;15921;52.034;20.650;2023-04-06T13:04:05;3.80;99.90
28767;DHT22;15921;52.034;20.650;2023-04-06T13:06:31;3.80;99.90
28767;DHT22;15921;52.034;20.650;2023-04-06T13:08:57;3.80;99.90
28767;DHT22;15921;52.034;20.650;2023-04-06T13:11:23;3.80;99.90
28767;DHT22;15921;52.034;20.650;2023-04-06T13:13:50;3.70;99.90
28767;DHT22;15921;52.034;20.650;2023-04-06T13:16:15;3.70;99.90
28767;DHT22;15921;52.034;20.650;2023-04-06T13:18:41;3.70;99.90
28767;DHT22;15921;52.034;20.650;2023-04-06T13:21:07;3.70;99.90
28767;DHT22;15921;52.034;20.650;2023-04-06T13:23:34;3.70;99.90
28767;DHT22;15921;52.034;20.650;2023-04-06T13:26:01;3.70;99.90
28767;DHT22;15921;52.034;20.650;2023-04-06T13:28:29;3.70;99.90
28767;DHT22;15921;52.034;20.650;2023-04-06T13:30:55;3.70;99.90
28767;DHT22;15921;52.034;20.650;2023-04-06T13:33:21;3.80;99.90
28767;DHT22;15921;52.034;20.650;2023-04-06T13:35:47;3.80;99.90
28767;DHT22;15921;52.034;20.650;2023-04-06T13:38:14;3.80;99.90
28767;DHT22;15921;52.034;20.650;2023-04-06T13:40:40;3.80;99.90
28767;DHT22;15921;52.034;20.650;2023-04-06T13:43:07;3.80;99.90
28767;DHT22;15921;52.034;20.650;2023-04-06T13:45:32;3.70;99.90
28767;DHT22;15921;52.034;20.650;2023-04-06T13:47:58;3.70;99.90
28767;DHT22;15921;52.034;20.650;2023-04-06T13:50:27;3.70;99.90
28767;DHT22;15921;52.034;20.650;2023-04-06T13:52:53;3.60;99.90
28767;DHT22;15921;52.034;20.650;2023-04-06T13:55:18;3.60;99.90
28767;DHT22;15921;52.034;20.650;2023-04-06T13:57:44;3.60;99.90
28767;DHT22;15921;52.034;20.650;2023-04-06T14:00:10;3.60;99.90
28767;DHT22;15921;52.034;20.650;2023-04-06T14:02:38;3.60;99.90
28767;DHT22;15921;52.034;20.650;2023-04-06T14:05:04;3.70;99.90
28767;DHT22;15921;52.034;20.650;2023-04-06T14:07:30;3.70;99.90
28767;DHT22;15921;52.034;20.650;2023-04-06T14:09:56;3.80;99.90
28767;DHT22;15921;52.034;20.650;2023-04-06T14:12:22;3.80;99.90
28767;DHT22;15921;52.034;20.650;2023-04-06T14:14:47;3.80;99.90
28767;DHT22;15921;52.034;20.650;2023-04-06T14:17:13;3.80;99.90
28767;DHT22;15921;52.034;20.650;2023-04-06T14:19:39;3.80;99.90
28767;DHT22;15921;52.034;20.650;2023-04-06T14:22:05;3.80;99.90
28767;DHT22;15921;52.034;20.650;2023-04-06T14:24:31;3.80;99.90
28767;DHT22;15921;52.034;20.650;2023-04-06T14:26:57;3.80;99.90
28767;DHT22;15921;52.034;20.650;2023-04-06T14:29:23;3.80;99.90
28767;DHT22;15921;52.034;20.650;2023-04-06T14:31:48;3.80;99.90
28767;DHT22;15921;52.034;20.650;2023-04-06T14:34:14;3.90;99.90
28767;DHT22;15921;52.034;20.650;2023-04-06T14:36:42;3.80;99.90
28767;DHT22;15921;52.034;20.650;2023-04-06T14:39:08;3.80;99.90
28767;DHT22;15921;52.034;20.650;2023-04-06T14:41:35;3.90;99.90
28767;DHT22;15921;52.034;20.650;2023-04-06T14:44:01;3.80;99.90
28767;DHT22;15921;52.034;20.650;2023-04-06T14:46:27;3.70;99.90
28767;DHT22;15921;52.034;20.650;2023-04-06T14:48:57;3.60;99.90
28767;DHT22;15921;52.034;20.650;2023-04-06T14:51:25;3.60;99.90
28767;DHT22;15921;52.034;20.650;2023-04-06T14:53:54;3.60;99.90
28767;DHT22;15921;52.034;20.650;2023-04-06T14:56:22;3.60;99.90
28767;DHT22;15921;52.034;20.650;2023-04-06T14:58:48;3.50;99.90
28767;DHT22;15921;52.034;20.650;2023-04-06T15:01:15;3.60;99.90
28767;DHT22;15921;52.034;20.650;2023-04-06T15:03:40;3.60;99.90
28767;DHT22;15921;52.034;20.650;2023-04-06T15:06:12;3.60;99.90
28767;DHT22;15921;52.034;20.650;2023-04-06T15:08:40;3.60;99.90
28767;DHT22;15921;52.034;20.650;2023-04-06T15:11:06;3.60;99.90
28767;DHT22;15921;52.034;20.650;2023-04-06T15:13:31;3.60;99.90
28767;DHT22;15921;52.034;20.650;2023-04-06T15:15:57;3.60;99.90
28767;DHT22;15921;52.034;20.650;2023-04-06T15:18:23;3.60;99.90
28767;DHT22;15921;52.034;20.650;2023-04-06T15:20:48;3.60;99.90
28767;DHT22;15921;52.034;20.650;2023-04-06T15:23:14;3.70;99.90
28767;DHT22;15921;52.034;20.650;2023-04-06T15:25:40;3.70;99.90
28767;DHT22;15921;52.034;20.650;2023-04-06T15:28:06;3.80;99.90
28767;DHT22;15921;52.034;20.650;2023-04-06T15:30:32;3.80;99.90
28767;DHT22;15921;52.034;20.650;2023-04-06T15:33:00;3.80;99.90
28767;DHT22;15921;52.034;20.650;2023-04-06T15:35:26;3.80;99.90